Strona główna
METAR-TAF:

METAR-TAF

Lotnisko :

Port lotniczy Londyn-Southend

Londyn-Southend, Anglia

Szerokość geograficzna: 51-34N, Długość geograficzna: 000-42E, wysokość: 15 m

Aktualna obserwacja pogody

Raport powstał 29 minut temu, godzina 01:20 UTC
Wiatr 5 kt od południowy zachód
Temperatura -2°C
Wilgotność 93%
Ciśnienie 999 hPa
Widzialność 10 km lub więcej
Brak chmur poniżej 1500 m i brak chmur cumulonimbus

METAR: EGMC 240120Z 23005KT CAVOK M02/M03 Q0999

czas: 01:49 (01:49 UTC)

Prognoza

Raport powstał 2 godziny i 54 minut temu, godzina 22:55 UTC
Prognoza ważna od 24 godzina 00 UTC do 24 godzina 09 UTC
Wiatr 5 kt od zachód
Widzialność 10 km lub więcej
Mało chmury na wysokości 2500 ft
Prawdopodobieństwo 30% :
Przejściowo
od 24 godzina 05 UTC do 24 godzina 09 UTC
Widzialność: 6000 m

TAF: EGMC 232255Z 2400/2409 27005KT 9999 FEW025 PROB30 TEMPO 2405/2409 6000

Obserwacja i prognoza pogody dla ponad 4000 lotnisk (raport METAR i TAF).

Dostępne stacje oznaczono żółtymi i czerwonymi punktami na mapie.

Najedź kursorem aby zobaczyć nazwę stacji.

Kliknij aby zobaczyć obserwacje i prognozy pogody.

Aby zmienić mapę: kliknij na zielony przycisk z czarnym krzyżykiem, aby powiększyć; na zielony przycisk z myślnikiem, aby pomniejszyć; na zielone strzałki, aby przejść do map sąsiednich.


METAR-TAF: